Alpharetta, Georgia
Current Conditions -  °F | °C
As of 12:53 PM on Saturday 25 Oct 2014 (Local Time) from KPDK Reporting Station
Clear Clear  
Wind Chill: 69°   Ceiling: Unl
Heat Index: 69°   Visibility: 10mi
Dew Point: 36°   Wind: 0mph
Humidity: 30%   Direction: NA
Pressure: 30.07"   Gusts: NA
Location:  34.08°N, 84.29°W
Report Text: KPDK 251653Z 00000KT 10SM CLR 21/02 A3007 RMK AO2 SLP179 T02060022
Loading
Personal Weather Stations






























Interactive Weather Map
Tropical Storm Tracking
New forecast layout! Learn more

10-Day Weather Forecast

Advertisements
Track Severe Weather on mobile